createdAt,value
2018-08-17T00:04:09.202Z,19.86
2018-08-17T00:09:06.524Z,19.84
2018-08-17T00:14:03.046Z,19.70
2018-08-17T00:18:58.596Z,19.74
2018-08-17T00:23:55.507Z,19.73
2018-08-17T00:28:51.083Z,19.64
2018-08-17T00:33:47.047Z,19.64
2018-08-17T00:38:43.124Z,19.81
2018-08-17T00:43:39.027Z,19.88
2018-08-17T00:48:34.943Z,19.85
2018-08-17T00:53:31.916Z,19.94
2018-08-17T00:58:27.273Z,19.94
2018-08-17T01:03:23.523Z,20.02
2018-08-17T01:08:19.476Z,19.74
2018-08-17T01:13:15.488Z,19.77
2018-08-17T01:18:11.445Z,19.88
2018-08-17T01:23:07.457Z,19.85
2018-08-17T01:28:03.533Z,19.95
2018-08-17T01:32:59.532Z,19.91
2018-08-17T01:37:55.469Z,19.88
2018-08-17T01:42:51.557Z,19.81
2018-08-17T01:47:48.391Z,19.79
2018-08-17T01:52:44.330Z,19.74
2018-08-17T01:57:40.210Z,19.81
2018-08-17T02:02:36.222Z,19.73
2018-08-17T02:07:32.338Z,19.64
2018-08-17T02:12:29.149Z,19.62
2018-08-17T02:17:25.991Z,19.55
2018-08-17T02:22:21.394Z,19.51
2018-08-17T02:27:18.356Z,19.34
2018-08-17T02:32:13.897Z,19.33
2018-08-17T02:37:09.696Z,19.18
2018-08-17T02:42:06.397Z,19.07
2018-08-17T02:47:02.826Z,18.96
2018-08-17T02:51:58.505Z,18.96
2018-08-17T02:56:54.303Z,18.80
2018-08-17T03:01:51.192Z,18.86
2018-08-17T03:06:46.745Z,18.81
2018-08-17T03:11:43.764Z,18.80
2018-08-17T03:16:39.638Z,18.74
2018-08-17T03:21:35.800Z,18.73
2018-08-17T03:26:32.740Z,18.66
2018-08-17T03:31:29.288Z,18.53
2018-08-17T03:36:25.062Z,18.62
2018-08-17T03:41:20.950Z,18.62
2018-08-17T03:46:17.117Z,18.66
2018-08-17T03:51:13.195Z,18.68
2018-08-17T03:56:09.091Z,18.56
2018-08-17T04:01:04.681Z,18.66
2018-08-17T04:06:00.472Z,18.56
2018-08-17T04:10:57.260Z,18.71
2018-08-17T04:15:52.887Z,18.58
2018-08-17T04:20:48.964Z,18.75
2018-08-17T04:25:44.925Z,18.74
2018-08-17T04:30:40.964Z,18.80
2018-08-17T04:35:36.806Z,18.77
2018-08-17T04:40:32.692Z,18.92
2018-08-17T04:45:28.703Z,18.81
2018-08-17T04:50:24.450Z,18.88
2018-08-17T04:55:21.524Z,18.89
2018-08-17T05:00:17.142Z,18.81
2018-08-17T05:05:13.180Z,18.74
2018-08-17T05:10:09.911Z,18.71
2018-08-17T05:15:05.533Z,18.70
2018-08-17T05:20:01.957Z,18.86
2018-08-17T05:24:58.481Z,18.99
2018-08-17T05:29:54.894Z,19.11
2018-08-17T05:34:52.467Z,19.09
2018-08-17T05:39:47.830Z,19.08
2018-08-17T05:44:44.717Z,19.14
2018-08-17T05:49:40.830Z,19.18
2018-08-17T05:54:36.616Z,18.93
2018-08-17T05:59:32.307Z,19.02
2018-08-17T06:04:28.118Z,18.99
2018-08-17T06:09:24.462Z,18.99
2018-08-17T06:14:20.090Z,18.93
2018-08-17T06:19:17.480Z,18.92
2018-08-17T06:24:13.093Z,19.16
2018-08-17T06:29:09.305Z,19.12
2018-08-17T06:34:05.245Z,18.98
2018-08-17T06:39:01.020Z,18.90
2018-08-17T06:43:57.040Z,18.62
2018-08-17T06:48:52.675Z,18.50
2018-08-17T06:53:48.500Z,18.49
2018-08-17T06:58:45.303Z,18.44
2018-08-17T07:03:41.239Z,18.55
2018-08-17T07:08:37.279Z,18.13
2018-08-17T07:13:33.145Z,18.33
2018-08-17T07:18:29.124Z,18.50
2018-08-17T07:23:24.882Z,18.47
2018-08-17T07:28:20.723Z,18.58
2018-08-17T07:33:16.501Z,18.65
2018-08-17T07:38:12.737Z,18.55
2018-08-17T07:43:08.796Z,18.53
2018-08-17T07:48:04.425Z,18.53
2018-08-17T07:53:00.217Z,18.40
2018-08-17T07:57:56.138Z,18.33
2018-08-17T08:02:51.818Z,18.18
2018-08-17T08:07:47.788Z,18.22
2018-08-17T08:12:44.812Z,18.18
2018-08-17T08:17:40.257Z,18.16
2018-08-17T08:22:36.023Z,18.23
2018-08-17T08:27:33.190Z,18.35
2018-08-17T08:32:29.755Z,18.59
2018-08-17T08:37:26.039Z,18.53
2018-08-17T08:42:22.311Z,18.47
2018-08-17T08:47:18.863Z,18.66
2018-08-17T08:52:15.194Z,18.78
2018-08-17T08:57:11.573Z,19.08
2018-08-17T09:02:08.092Z,19.47
2018-08-17T09:07:04.676Z,19.49
2018-08-17T09:12:02.344Z,20.21
2018-08-17T09:16:58.307Z,20.24
2018-08-17T09:21:55.602Z,20.29
2018-08-17T09:26:52.535Z,20.65
2018-08-17T09:31:48.089Z,20.63
2018-08-17T09:36:45.045Z,20.67
2018-08-17T09:41:41.276Z,20.55
2018-08-17T09:46:37.724Z,20.31
2018-08-17T09:51:34.130Z,20.29
2018-08-17T09:56:29.261Z,20.26
2018-08-17T10:01:25.368Z,20.41
2018-08-17T10:06:22.625Z,20.50
2018-08-17T10:11:18.149Z,20.48
2018-08-17T10:16:13.757Z,20.52
2018-08-17T10:21:09.632Z,20.24
2018-08-17T10:26:05.292Z,20.32
2018-08-17T10:31:01.359Z,20.28
2018-08-17T10:35:57.489Z,19.99
2018-08-17T10:40:53.882Z,19.95
2018-08-17T10:45:50.070Z,20.00
2018-08-17T10:50:46.190Z,20.29
2018-08-17T10:55:42.657Z,20.32
2018-08-17T11:00:38.691Z,20.65
2018-08-17T11:05:35.641Z,20.63
2018-08-17T11:10:31.546Z,20.92
2018-08-17T11:15:28.542Z,20.85
2018-08-17T11:20:24.101Z,20.75
2018-08-17T11:25:19.332Z,20.60
2018-08-17T11:30:15.631Z,20.19
2018-08-17T11:35:11.741Z,20.29
2018-08-17T11:40:09.175Z,20.37
2018-08-17T11:45:04.921Z,20.34
2018-08-17T11:50:02.074Z,20.75
2018-08-17T11:54:58.423Z,21.20
2018-08-17T11:59:54.873Z,21.11
2018-08-17T12:04:51.625Z,21.09
2018-08-17T12:09:48.918Z,21.24
2018-08-17T12:14:45.520Z,21.20
2018-08-17T12:19:40.521Z,21.00
2018-08-17T12:24:37.196Z,21.05
2018-08-17T12:29:33.808Z,20.77
2018-08-17T12:34:29.181Z,20.55
2018-08-17T12:39:25.725Z,20.37
2018-08-17T12:44:21.422Z,20.51
2018-08-17T12:49:17.958Z,20.78
2018-08-17T12:54:13.983Z,20.92
2018-08-17T12:59:10.740Z,21.11
2018-08-17T13:04:07.251Z,21.33
2018-08-17T13:09:05.579Z,22.10
2018-08-17T13:14:01.302Z,22.02
2018-08-17T13:18:57.341Z,22.08
2018-08-17T13:23:53.386Z,22.07
2018-08-17T13:28:49.341Z,22.02
2018-08-17T13:33:45.677Z,22.23
2018-08-17T13:38:42.291Z,22.76
2018-08-17T13:43:38.269Z,22.91
2018-08-17T13:48:35.676Z,22.78
2018-08-17T13:53:30.942Z,22.38
2018-08-17T13:58:27.555Z,22.18
2018-08-17T14:03:23.009Z,22.20
2018-08-17T14:08:18.874Z,22.07
2018-08-17T14:13:15.284Z,21.98
2018-08-17T14:18:10.784Z,21.83
2018-08-17T14:23:06.316Z,22.00
2018-08-17T14:28:02.079Z,21.80
2018-08-17T14:32:58.764Z,21.92
2018-08-17T14:37:55.200Z,21.87
2018-08-17T14:42:50.879Z,22.02
2018-08-17T14:47:47.185Z,22.25
2018-08-17T14:52:43.318Z,22.26
2018-08-17T14:57:40.323Z,22.62
2018-08-17T15:02:36.194Z,22.66
2018-08-17T15:07:32.337Z,22.81
2018-08-17T15:12:28.364Z,22.96
2018-08-17T15:17:24.714Z,22.93
2018-08-17T15:22:20.340Z,22.84
2018-08-17T15:27:16.418Z,22.75
2018-08-17T15:32:13.260Z,22.50
2018-08-17T15:37:08.589Z,22.29
2018-08-17T15:42:04.227Z,22.23
2018-08-17T15:46:59.937Z,22.15
2018-08-17T15:51:56.825Z,22.26
2018-08-17T15:56:52.397Z,22.32
2018-08-17T16:01:48.508Z,22.47
2018-08-17T16:06:44.582Z,22.50
2018-08-17T16:11:40.585Z,22.55
2018-08-17T16:16:36.392Z,22.54
2018-08-17T16:21:32.195Z,22.55
2018-08-17T16:26:27.975Z,22.50
2018-08-17T16:31:23.881Z,22.41
2018-08-17T16:36:19.646Z,22.38
2018-08-17T16:41:15.388Z,22.25
2018-08-17T16:46:12.165Z,22.26
2018-08-17T16:51:07.909Z,22.22
2018-08-17T16:56:04.760Z,22.13
2018-08-17T17:01:00.707Z,22.11
2018-08-17T17:05:57.699Z,22.11
2018-08-17T17:10:53.307Z,22.30
2018-08-17T17:15:49.114Z,22.25
2018-08-17T17:20:45.976Z,22.26
2018-08-17T17:25:41.866Z,22.18
2018-08-17T17:30:37.906Z,22.13
2018-08-17T17:35:35.184Z,22.26
2018-08-17T17:40:30.792Z,22.17
2018-08-17T17:45:27.553Z,22.13
2018-08-17T17:50:23.097Z,22.10
2018-08-17T17:55:18.983Z,21.98
2018-08-17T18:00:15.175Z,22.02
2018-08-17T18:05:11.709Z,21.85
2018-08-17T18:10:07.685Z,21.77
2018-08-17T18:15:04.552Z,21.69
2018-08-17T18:20:01.057Z,21.61
2018-08-17T18:24:56.488Z,21.42
2018-08-17T18:29:52.061Z,21.25
2018-08-17T18:34:48.125Z,21.20
2018-08-17T18:39:44.335Z,21.09
2018-08-17T18:44:40.552Z,20.96
2018-08-17T18:49:36.366Z,20.82
2018-08-17T18:54:32.925Z,20.66
2018-08-17T18:59:28.597Z,20.55
2018-08-17T19:04:24.659Z,20.39
2018-08-17T19:09:21.363Z,20.21
2018-08-17T19:14:16.985Z,20.21
2018-08-17T19:19:13.746Z,20.02
2018-08-17T19:24:09.349Z,20.00
2018-08-17T19:29:05.281Z,19.77
2018-08-17T19:34:01.772Z,19.70
2018-08-17T19:38:57.665Z,19.73
2018-08-17T19:43:53.260Z,19.67
2018-08-17T19:48:49.563Z,19.55
2018-08-17T19:53:45.180Z,19.52
2018-08-17T19:58:40.953Z,19.34
2018-08-17T20:03:38.633Z,19.34
2018-08-17T20:08:33.889Z,19.33
2018-08-17T20:13:30.731Z,19.24
2018-08-17T20:18:27.397Z,19.19
2018-08-17T20:23:23.804Z,19.12
2018-08-17T20:28:19.059Z,19.12
2018-08-17T20:33:16.000Z,19.11
2018-08-17T20:38:11.463Z,19.14
2018-08-17T20:43:07.611Z,19.08
2018-08-17T20:48:03.879Z,19.07
2018-08-17T20:52:59.678Z,18.99
2018-08-17T20:57:55.623Z,18.96
2018-08-17T21:02:52.873Z,18.90
2018-08-17T21:07:48.388Z,18.92
2018-08-17T21:12:45.428Z,18.78
2018-08-17T21:17:41.954Z,18.70
2018-08-17T21:22:37.513Z,18.63
2018-08-17T21:27:34.256Z,18.68
2018-08-17T21:32:29.718Z,18.70
2018-08-17T21:37:25.732Z,18.62
2018-08-17T21:42:21.603Z,18.56
2018-08-17T21:47:18.115Z,18.52
2018-08-17T21:52:13.777Z,18.55
2018-08-17T21:57:09.678Z,18.43
2018-08-17T22:02:05.807Z,18.26
2018-08-17T22:07:02.800Z,18.18
2018-08-17T22:11:58.576Z,18.29
2018-08-17T22:16:54.295Z,18.26
2018-08-17T22:21:50.127Z,18.31
2018-08-17T22:26:46.307Z,18.20
2018-08-17T22:31:43.067Z,18.08
2018-08-17T22:36:38.554Z,17.94
2018-08-17T22:41:34.639Z,18.10
2018-08-17T22:46:30.673Z,18.10
2018-08-17T22:51:26.564Z,18.08
2018-08-17T22:56:23.196Z,18.08
2018-08-17T23:01:18.948Z,18.11
2018-08-17T23:06:15.680Z,18.05
2018-08-17T23:11:11.142Z,17.98
2018-08-17T23:16:06.969Z,18.00
2018-08-17T23:21:02.719Z,18.00
2018-08-17T23:25:58.562Z,17.97
2018-08-17T23:30:54.672Z,17.97
2018-08-17T23:35:50.691Z,17.87
2018-08-17T23:40:46.354Z,17.87
2018-08-17T23:45:43.168Z,17.86
2018-08-17T23:50:39.481Z,17.89
2018-08-17T23:55:35.305Z,17.94
